createdAt,value
2022-09-11T00:01:27.252Z,0.70
2022-09-11T00:03:57.219Z,0.85
2022-09-11T00:06:29.936Z,0.60
2022-09-11T00:09:00.841Z,0.80
2022-09-11T00:14:00.036Z,0.85
2022-09-11T00:16:34.646Z,0.73
2022-09-11T00:19:09.243Z,1.38
2022-09-11T00:21:36.422Z,1.20
2022-09-11T00:24:03.934Z,0.93
2022-09-11T00:26:30.571Z,0.70
2022-09-11T00:28:57.433Z,1.00
2022-09-11T00:31:27.897Z,0.90
2022-09-11T00:33:55.143Z,0.93
2022-09-11T00:36:27.747Z,0.88
2022-09-11T00:38:54.717Z,0.75
2022-09-11T00:41:28.586Z,0.90
2022-09-11T00:44:02.570Z,1.27
2022-09-11T00:46:41.965Z,1.00
2022-09-11T00:49:19.492Z,0.90
2022-09-11T00:51:49.651Z,0.82
2022-09-11T00:54:20.281Z,1.08
2022-09-11T00:56:48.765Z,0.90
2022-09-11T00:59:16.867Z,2.80
2022-09-11T01:01:43.543Z,1.20
2022-09-11T01:04:11.199Z,0.98
2022-09-11T01:06:37.748Z,1.15
2022-09-11T01:09:04.239Z,0.90
2022-09-11T01:11:50.694Z,1.00
2022-09-11T01:14:24.582Z,0.90
2022-09-11T01:17:32.839Z,0.95
2022-09-11T01:20:43.431Z,1.10
2022-09-11T01:23:30.218Z,1.00
2022-09-11T01:26:37.389Z,1.33
2022-09-11T01:29:07.112Z,1.42
2022-09-11T01:31:53.613Z,1.25
2022-09-11T01:34:51.528Z,1.00
2022-09-11T01:37:38.258Z,1.10
2022-09-11T01:40:15.137Z,1.20
2022-09-11T01:42:44.198Z,0.90
2022-09-11T01:45:14.088Z,1.20
2022-09-11T01:47:42.448Z,1.35
2022-09-11T01:50:14.049Z,1.20
2022-09-11T01:52:54.730Z,0.95
2022-09-11T01:55:37.922Z,0.93
2022-09-11T01:58:21.414Z,1.13
2022-09-11T02:00:53.178Z,1.00
2022-09-11T02:03:27.478Z,1.20
2022-09-11T02:06:00.328Z,1.10
2022-09-11T02:08:37.194Z,1.05
2022-09-11T02:11:09.098Z,0.80
2022-09-11T02:14:03.550Z,0.93
2022-09-11T02:16:45.077Z,0.90
2022-09-11T02:19:14.551Z,1.02
2022-09-11T02:21:41.072Z,0.90
2022-09-11T02:24:09.424Z,0.80
2022-09-11T02:26:42.417Z,0.90
2022-09-11T02:29:09.020Z,0.95
2022-09-11T02:31:36.252Z,1.05
2022-09-11T02:34:03.404Z,0.63
2022-09-11T02:36:32.637Z,0.80
2022-09-11T02:39:12.048Z,1.08
2022-09-11T02:42:09.974Z,0.80
2022-09-11T02:44:45.072Z,0.93
2022-09-11T02:47:17.363Z,0.88
2022-09-11T02:50:04.362Z,0.95
2022-09-11T02:52:45.543Z,1.10
2022-09-11T02:55:15.564Z,1.02
2022-09-11T02:57:50.577Z,1.02
2022-09-11T03:00:17.633Z,1.08
2022-09-11T03:02:44.265Z,1.10
2022-09-11T03:05:11.751Z,1.05
2022-09-11T03:07:39.124Z,1.80
2022-09-11T03:10:06.613Z,0.82
2022-09-11T03:12:34.318Z,0.93
2022-09-11T03:15:02.228Z,0.90
2022-09-11T03:17:28.718Z,0.90
2022-09-11T03:19:56.230Z,1.00
2022-09-11T03:22:22.610Z,1.00
2022-09-11T03:24:49.001Z,1.00
2022-09-11T03:27:15.468Z,1.23
2022-09-11T03:29:41.903Z,1.63
2022-09-11T03:32:08.472Z,1.10
2022-09-11T03:34:34.915Z,1.23
2022-09-11T03:37:02.284Z,1.30
2022-09-11T03:39:28.727Z,1.33
2022-09-11T03:41:55.115Z,1.40
2022-09-11T03:44:21.820Z,1.27
2022-09-11T03:46:48.208Z,1.23
2022-09-11T03:49:15.954Z,1.38
2022-09-11T03:51:42.418Z,1.27
2022-09-11T03:54:08.865Z,1.10
2022-09-11T03:56:35.402Z,1.40
2022-09-11T03:59:01.878Z,1.10
2022-09-11T04:01:28.982Z,1.25
2022-09-11T04:03:55.402Z,1.27
2022-09-11T04:06:21.834Z,1.27
2022-09-11T04:08:48.317Z,1.15
2022-09-11T04:11:14.901Z,1.20
2022-09-11T04:13:42.394Z,1.40
2022-09-11T04:16:13.114Z,1.13
2022-09-11T04:21:13.898Z,1.73
2022-09-11T04:23:41.553Z,1.67
2022-09-11T04:26:21.039Z,1.77
2022-09-11T04:28:47.514Z,1.58
2022-09-11T04:31:15.869Z,1.80
2022-09-11T04:33:42.744Z,1.70
2022-09-11T04:36:13.022Z,1.90
2022-09-11T04:38:41.416Z,2.10
2022-09-11T04:41:08.593Z,1.70
2022-09-11T04:43:37.197Z,1.83
2022-09-11T04:46:15.840Z,1.60
2022-09-11T04:48:51.685Z,1.70
2022-09-11T04:51:22.621Z,1.80
2022-09-11T04:53:50.141Z,1.65
2022-09-11T04:56:16.984Z,1.77
2022-09-11T04:58:43.489Z,2.10
2022-09-11T05:01:16.454Z,2.05
2022-09-11T05:03:43.922Z,1.70
2022-09-11T05:06:12.408Z,1.75
2022-09-11T05:08:38.876Z,1.80
2022-09-11T05:11:05.721Z,2.00
2022-09-11T05:13:36.359Z,2.03
2022-09-11T05:16:04.523Z,1.95
2022-09-11T05:18:31.123Z,2.70
2022-09-11T05:21:06.209Z,1.92
2022-09-11T05:23:34.372Z,2.55
2022-09-11T05:26:04.896Z,1.98
2022-09-11T05:28:31.828Z,1.85
2022-09-11T05:30:59.637Z,2.47
2022-09-11T05:33:27.536Z,2.13
2022-09-11T05:35:55.041Z,2.28
2022-09-11T05:38:22.617Z,2.08
2022-09-11T05:40:51.586Z,2.20
2022-09-11T05:43:19.683Z,2.28
2022-09-11T05:45:55.033Z,2.25
2022-09-11T05:48:22.131Z,2.50
2022-09-11T05:50:53.265Z,2.40
2022-09-11T05:53:20.997Z,2.42
2022-09-11T05:55:48.111Z,2.80
2022-09-11T05:58:17.373Z,3.10
2022-09-11T06:00:46.616Z,2.97
2022-09-11T06:03:17.680Z,2.88
2022-09-11T06:05:44.855Z,2.90
2022-09-11T06:08:11.898Z,2.97
2022-09-11T06:10:47.786Z,3.42
2022-09-11T06:13:17.846Z,3.30
2022-09-11T06:15:49.039Z,3.30
2022-09-11T06:18:16.449Z,3.28
2022-09-11T06:20:43.496Z,3.15
2022-09-11T06:23:11.554Z,3.25
2022-09-11T06:25:38.850Z,3.10
2022-09-11T06:28:05.423Z,3.70
2022-09-11T06:30:33.307Z,3.28
2022-09-11T06:32:59.746Z,3.38
2022-09-11T06:35:26.389Z,3.15
2022-09-11T06:37:53.003Z,3.50
2022-09-11T06:40:19.395Z,3.10
2022-09-11T06:42:46.038Z,4.45
2022-09-11T06:45:12.398Z,4.47
2022-09-11T06:47:38.809Z,4.72
2022-09-11T06:50:05.703Z,4.78
2022-09-11T06:52:35.504Z,4.78
2022-09-11T06:55:02.273Z,4.93
2022-09-11T06:57:28.904Z,4.45
2022-09-11T06:59:56.248Z,3.97
2022-09-11T07:02:22.690Z,4.05
2022-09-11T07:04:49.181Z,4.65
2022-09-11T07:07:15.596Z,4.50
2022-09-11T07:09:41.985Z,4.35
2022-09-11T07:12:08.375Z,4.05
2022-09-11T07:14:34.803Z,4.25
2022-09-11T07:17:01.312Z,4.30
2022-09-11T07:19:27.795Z,4.35
2022-09-11T07:21:54.275Z,4.40
2022-09-11T07:24:20.721Z,3.83
2022-09-11T07:26:47.253Z,3.97
2022-09-11T07:29:13.847Z,4.18
2022-09-11T07:31:40.331Z,3.70
2022-09-11T07:34:06.828Z,3.38
2022-09-11T07:36:35.660Z,3.22
2022-09-11T07:39:03.436Z,3.22
2022-09-11T07:41:31.170Z,3.55
2022-09-11T07:44:03.735Z,3.40
2022-09-11T07:46:31.185Z,3.10
2022-09-11T07:48:58.579Z,3.50
2022-09-11T07:51:26.831Z,3.45
2022-09-11T07:53:54.385Z,3.75
2022-09-11T07:56:23.960Z,4.32
2022-09-11T07:58:52.460Z,3.90
2022-09-11T08:01:21.918Z,3.58
2022-09-11T08:03:53.105Z,3.67
2022-09-11T08:06:22.372Z,3.90
2022-09-11T08:08:53.862Z,3.80
2022-09-11T08:11:21.099Z,3.60
2022-09-11T08:13:50.903Z,4.13
2022-09-11T08:16:23.314Z,3.73
2022-09-11T08:18:49.961Z,3.70
2022-09-11T08:21:16.718Z,4.57
2022-09-11T08:23:45.261Z,4.95
2022-09-11T08:26:14.226Z,4.70
2022-09-11T08:28:45.087Z,5.18
2022-09-11T08:31:13.154Z,4.53
2022-09-11T08:33:39.906Z,5.75
2022-09-11T08:36:09.696Z,5.45
2022-09-11T08:38:37.294Z,5.07
2022-09-11T08:41:18.564Z,4.93
2022-09-11T08:43:51.381Z,6.15
2022-09-11T08:46:20.893Z,6.05
2022-09-11T08:49:11.531Z,6.43
2022-09-11T08:51:39.759Z,7.18
2022-09-11T08:54:06.958Z,7.00
2022-09-11T08:56:36.246Z,7.10
2022-09-11T08:59:19.147Z,7.90
2022-09-11T09:02:08.859Z,8.40
2022-09-11T09:05:02.537Z,7.20
2022-09-11T09:07:42.884Z,7.85
2022-09-11T09:10:28.137Z,7.50
2022-09-11T09:13:18.597Z,8.52
2022-09-11T09:15:58.556Z,8.10
2022-09-11T09:19:04.795Z,7.93
2022-09-11T09:21:37.313Z,7.90
2022-09-11T09:24:19.191Z,8.63
2022-09-11T09:26:57.045Z,8.45
2022-09-11T09:29:28.470Z,8.52
2022-09-11T09:32:04.492Z,9.40
2022-09-11T09:34:37.423Z,8.95
2022-09-11T09:37:16.427Z,8.90
2022-09-11T09:39:43.294Z,9.20
2022-09-11T09:42:32.043Z,8.38
2022-09-11T09:45:17.250Z,9.80
2022-09-11T09:47:47.881Z,9.65
2022-09-11T09:52:48.780Z,8.63
2022-09-11T09:55:18.397Z,9.75
2022-09-11T09:57:44.987Z,8.65
2022-09-11T10:00:11.938Z,9.77
2022-09-11T10:02:58.580Z,9.18
2022-09-11T10:05:42.174Z,8.77
2022-09-11T10:08:38.134Z,9.35
2022-09-11T10:11:07.397Z,9.98
2022-09-11T10:13:41.245Z,9.25
2022-09-11T10:16:23.515Z,9.68
2022-09-11T10:18:50.074Z,9.40
2022-09-11T10:21:33.870Z,9.07
2022-09-11T10:24:03.095Z,9.40
2022-09-11T10:26:38.751Z,8.55
2022-09-11T10:29:14.415Z,8.60
2022-09-11T10:31:48.145Z,8.07
2022-09-11T10:34:19.069Z,7.97
2022-09-11T10:37:14.926Z,8.10
2022-09-11T10:39:43.921Z,7.82
2022-09-11T10:42:17.986Z,8.30
2022-09-11T10:44:47.751Z,7.85
2022-09-11T10:47:18.428Z,7.83
2022-09-11T10:52:11.990Z,6.45
2022-09-11T10:54:45.842Z,6.15
2022-09-11T10:57:28.110Z,6.32
2022-09-11T11:00:13.658Z,6.78
2022-09-11T11:02:48.933Z,6.95
2022-09-11T11:05:46.693Z,6.43
2022-09-11T11:08:50.907Z,6.22
2022-09-11T11:11:24.264Z,5.55
2022-09-11T11:14:04.709Z,6.00
2022-09-11T11:16:59.677Z,6.03
2022-09-11T11:19:29.110Z,6.13
2022-09-11T11:22:25.382Z,6.25
2022-09-11T11:25:02.125Z,5.72
2022-09-11T11:27:37.641Z,6.45
2022-09-11T11:30:19.450Z,5.53
2022-09-11T11:33:12.491Z,6.18
2022-09-11T11:35:41.870Z,6.32
2022-09-11T11:38:20.207Z,6.40
2022-09-11T11:40:53.414Z,6.32
2022-09-11T11:43:23.218Z,6.20
2022-09-11T11:46:04.691Z,6.13
2022-09-11T11:48:39.571Z,5.82
2022-09-11T11:51:15.475Z,6.65
2022-09-11T11:53:57.091Z,5.88
2022-09-11T11:57:13.379Z,6.30
2022-09-11T11:59:59.293Z,5.53
2022-09-11T12:02:51.296Z,5.88
2022-09-11T12:05:24.783Z,5.60
2022-09-11T12:07:51.836Z,5.40
2022-09-11T12:10:22.431Z,4.47
2022-09-11T12:12:54.982Z,4.78
2022-09-11T12:15:24.357Z,5.03
2022-09-11T12:18:15.692Z,4.78
2022-09-11T12:20:45.028Z,4.88
2022-09-11T12:23:29.968Z,4.63
2022-09-11T12:26:24.953Z,5.05
2022-09-11T12:29:11.697Z,4.18
2022-09-11T12:31:50.240Z,3.92
2022-09-11T12:34:19.163Z,3.83
2022-09-11T12:36:57.905Z,4.00
2022-09-11T12:39:32.055Z,3.80
2022-09-11T12:42:30.998Z,3.95
2022-09-11T12:44:59.651Z,3.72
2022-09-11T12:47:36.653Z,4.43
2022-09-11T12:50:06.217Z,4.07
2022-09-11T12:52:40.192Z,3.45
2022-09-11T12:55:20.771Z,3.65
2022-09-11T12:57:47.241Z,3.90
2022-09-11T13:00:24.052Z,3.63
2022-09-11T13:02:56.988Z,3.78
2022-09-11T13:05:34.550Z,3.90
2022-09-11T13:08:24.527Z,3.08
2022-09-11T13:10:51.044Z,3.93
2022-09-11T13:13:35.575Z,3.92
2022-09-11T13:16:23.693Z,4.20
2022-09-11T13:18:50.381Z,4.10
2022-09-11T13:21:21.149Z,4.10
2022-09-11T13:23:49.650Z,3.83
2022-09-11T13:26:31.324Z,3.40
2022-09-11T13:29:00.402Z,3.33
2022-09-11T13:31:37.984Z,2.97
2022-09-11T13:34:12.650Z,2.80
2022-09-11T13:36:40.539Z,3.22
2022-09-11T13:39:08.956Z,2.78
2022-09-11T13:41:39.940Z,2.92
2022-09-11T13:44:13.288Z,3.28
2022-09-11T13:46:52.414Z,3.33
2022-09-11T13:49:35.162Z,3.20
2022-09-11T13:52:05.473Z,2.85
2022-09-11T13:54:38.234Z,2.80
2022-09-11T13:57:12.801Z,2.85
2022-09-11T13:59:57.070Z,3.00
2022-09-11T14:02:44.513Z,2.90
2022-09-11T14:05:20.866Z,2.75
2022-09-11T14:08:00.806Z,3.00
2022-09-11T14:10:27.141Z,2.45
2022-09-11T14:13:05.780Z,2.80
2022-09-11T14:15:39.967Z,2.42
2022-09-11T14:18:13.661Z,2.30
2022-09-11T14:20:43.546Z,2.15
2022-09-11T14:23:17.852Z,2.40
2022-09-11T14:26:24.318Z,2.35
2022-09-11T14:28:58.199Z,2.10
2022-09-11T14:31:41.762Z,2.00
2022-09-11T14:34:12.242Z,1.90
2022-09-11T14:36:52.787Z,1.83
2022-09-11T14:41:55.079Z,1.95
2022-09-11T14:44:22.226Z,1.80
2022-09-11T14:46:48.782Z,2.20
2022-09-11T14:49:15.620Z,2.28
2022-09-11T14:51:43.145Z,2.42
2022-09-11T14:54:16.040Z,2.10
2022-09-11T14:56:42.753Z,2.33
2022-09-11T14:59:09.314Z,2.00
2022-09-11T15:01:36.739Z,2.10
2022-09-11T15:04:03.848Z,2.25
2022-09-11T15:06:31.118Z,2.03
2022-09-11T15:08:58.230Z,2.40
2022-09-11T15:11:25.513Z,2.08
2022-09-11T15:14:14.436Z,2.08
2022-09-11T15:16:38.251Z,2.53
2022-09-11T15:19:04.649Z,2.60
2022-09-11T15:21:35.319Z,2.20
2022-09-11T15:24:05.203Z,2.50
2022-09-11T15:26:33.204Z,2.33
2022-09-11T15:29:00.485Z,2.20
2022-09-11T15:31:29.936Z,2.20
2022-09-11T15:33:57.115Z,2.33
2022-09-11T15:36:24.938Z,2.72
2022-09-11T15:38:54.987Z,2.60
2022-09-11T15:41:22.381Z,2.15
2022-09-11T15:43:50.551Z,1.98
2022-09-11T15:46:22.608Z,2.13
2022-09-11T15:48:50.182Z,2.10
2022-09-11T15:51:20.566Z,2.38
2022-09-11T15:53:48.125Z,2.40
2022-09-11T15:56:16.998Z,2.10
2022-09-11T15:58:47.760Z,2.15
2022-09-11T16:01:22.642Z,2.40
2022-09-11T16:03:54.104Z,2.30
2022-09-11T16:06:21.910Z,2.30
2022-09-11T16:08:48.916Z,1.90
2022-09-11T16:11:16.606Z,2.40
2022-09-11T16:13:47.512Z,2.00
2022-09-11T16:16:14.384Z,2.60
2022-09-11T16:18:42.527Z,2.72
2022-09-11T16:21:11.993Z,3.08
2022-09-11T16:23:39.151Z,2.22
2022-09-11T16:26:08.555Z,2.50
2022-09-11T16:28:36.550Z,2.60
2022-09-11T16:31:03.811Z,2.35
2022-09-11T16:33:31.640Z,2.35
2022-09-11T16:36:04.920Z,2.30
2022-09-11T16:38:33.035Z,2.60
2022-09-11T16:41:02.789Z,2.15
2022-09-11T16:43:31.508Z,2.47
2022-09-11T16:45:58.008Z,2.25
2022-09-11T16:48:25.630Z,2.47
2022-09-11T16:50:54.297Z,2.67
2022-09-11T16:53:22.647Z,3.03
2022-09-11T16:55:50.247Z,2.97
2022-09-11T16:58:17.617Z,2.75
2022-09-11T17:00:45.176Z,2.60
2022-09-11T17:03:14.164Z,2.45
2022-09-11T17:05:48.578Z,2.72
2022-09-11T17:08:15.746Z,2.67
2022-09-11T17:10:44.395Z,2.63
2022-09-11T17:13:11.651Z,2.67
2022-09-11T17:15:39.028Z,2.53
2022-09-11T17:18:05.657Z,2.60
2022-09-11T17:20:32.285Z,2.60
2022-09-11T17:22:58.690Z,2.70
2022-09-11T17:25:25.861Z,2.90
2022-09-11T17:27:52.403Z,2.70
2022-09-11T17:30:19.514Z,2.63
2022-09-11T17:32:47.108Z,2.65
2022-09-11T17:35:14.753Z,2.60
2022-09-11T17:37:42.716Z,2.63
2022-09-11T17:40:09.650Z,2.70
2022-09-11T17:42:36.220Z,2.85
2022-09-11T17:45:03.900Z,2.75
2022-09-11T17:47:33.243Z,2.80
2022-09-11T17:50:05.003Z,2.55
2022-09-11T17:52:33.331Z,2.63
2022-09-11T17:55:00.515Z,3.30
2022-09-11T17:57:27.084Z,2.80
2022-09-11T17:59:55.384Z,2.85
2022-09-11T18:02:22.085Z,2.72
2022-09-11T18:04:49.246Z,2.60
2022-09-11T18:07:18.745Z,2.65
2022-09-11T18:09:47.072Z,3.25
2022-09-11T18:12:14.811Z,3.00
2022-09-11T18:14:45.865Z,2.97
2022-09-11T18:17:12.763Z,3.67
2022-09-11T18:19:39.752Z,3.38
2022-09-11T18:22:07.162Z,1.90
2022-09-11T18:24:33.624Z,2.80
2022-09-11T18:27:01.057Z,2.35
2022-09-11T18:29:30.175Z,2.03
2022-09-11T18:31:57.536Z,2.15
2022-09-11T18:34:26.815Z,2.10
2022-09-11T18:36:54.077Z,2.50
2022-09-11T18:39:21.892Z,2.60
2022-09-11T18:41:50.515Z,2.83
2022-09-11T18:44:20.176Z,2.63
2022-09-11T18:46:47.562Z,2.53
2022-09-11T18:49:15.365Z,3.40
2022-09-11T18:51:43.665Z,2.40
2022-09-11T18:54:15.098Z,3.17
2022-09-11T18:56:44.012Z,3.50
2022-09-11T18:59:12.609Z,3.20
2022-09-11T19:01:40.893Z,3.38
2022-09-11T19:04:10.185Z,2.92
2022-09-11T19:06:41.501Z,2.95
2022-09-11T19:09:13.444Z,3.40
2022-09-11T19:11:42.634Z,3.60
2022-09-11T19:14:12.046Z,3.97
2022-09-11T19:16:40.732Z,4.15
2022-09-11T19:19:08.541Z,3.75
2022-09-11T19:21:36.989Z,3.70
2022-09-11T19:24:10.583Z,3.92
2022-09-11T19:26:39.704Z,3.42
2022-09-11T19:29:09.404Z,3.85
2022-09-11T19:31:39.736Z,3.83
2022-09-11T19:34:11.815Z,4.00
2022-09-11T19:36:39.633Z,4.28
2022-09-11T19:39:06.608Z,4.15
2022-09-11T19:41:37.618Z,4.03
2022-09-11T19:44:08.236Z,4.10
2022-09-11T19:46:38.775Z,4.78
2022-09-11T19:51:38.432Z,4.93
2022-09-11T19:54:06.747Z,5.55
2022-09-11T19:56:38.742Z,6.00
2022-09-11T19:59:09.068Z,5.82
2022-09-11T20:01:35.709Z,5.68
2022-09-11T20:04:03.707Z,5.40
2022-09-11T20:06:34.137Z,5.95
2022-09-11T20:09:29.747Z,5.80
2022-09-11T20:11:47.819Z,6.28
2022-09-11T20:14:14.412Z,5.28
2022-09-11T20:16:41.019Z,5.35
2022-09-11T20:19:09.253Z,5.38
2022-09-11T20:21:36.156Z,5.55
2022-09-11T20:24:05.242Z,5.57
2022-09-11T20:26:32.559Z,5.43
2022-09-11T20:29:01.973Z,5.78
2022-09-11T20:31:31.672Z,5.85
2022-09-11T20:34:00.670Z,5.40
2022-09-11T20:36:29.871Z,5.90
2022-09-11T20:39:00.807Z,5.30
2022-09-11T20:41:29.791Z,4.95
2022-09-11T20:44:01.938Z,5.32
2022-09-11T20:46:28.398Z,5.32
2022-09-11T20:48:55.349Z,4.93
2022-09-11T20:51:22.812Z,5.75
2022-09-11T20:53:49.764Z,5.30
2022-09-11T20:56:20.348Z,5.55
2022-09-11T20:58:46.794Z,5.25
2022-09-11T21:01:16.565Z,5.28
2022-09-11T21:03:45.456Z,5.83
2022-09-11T21:06:12.184Z,6.45
2022-09-11T21:08:39.942Z,5.57
2022-09-11T21:11:06.910Z,6.30
2022-09-11T21:13:37.940Z,5.60
2022-09-11T21:16:07.027Z,5.45
2022-09-11T21:18:34.512Z,5.20
2022-09-11T21:21:01.031Z,4.85
2022-09-11T21:23:27.620Z,4.93
2022-09-11T21:25:54.081Z,5.35
2022-09-11T21:28:20.685Z,5.80
2022-09-11T21:30:47.093Z,5.25
2022-09-11T21:33:13.491Z,6.07
2022-09-11T21:35:40.020Z,5.70
2022-09-11T21:38:06.841Z,6.10
2022-09-11T21:40:33.205Z,5.85
2022-09-11T21:42:59.725Z,5.55
2022-09-11T21:45:26.210Z,5.88
2022-09-11T21:47:52.674Z,5.65
2022-09-11T21:50:19.082Z,6.32
2022-09-11T21:52:45.512Z,6.13
2022-09-11T21:55:12.091Z,6.05
2022-09-11T21:57:38.588Z,5.78
2022-09-11T22:00:08.969Z,5.90
2022-09-11T22:02:35.998Z,6.28
2022-09-11T22:05:04.088Z,6.90
2022-09-11T22:07:31.504Z,6.68
2022-09-11T22:09:58.742Z,5.70
2022-09-11T22:12:26.273Z,6.32
2022-09-11T22:14:54.832Z,6.43
2022-09-11T22:17:22.016Z,5.63
2022-09-11T22:19:48.472Z,6.00
2022-09-11T22:22:15.186Z,6.40
2022-09-11T22:24:41.862Z,6.68
2022-09-11T22:27:09.570Z,5.97
2022-09-11T22:29:36.971Z,6.40
2022-09-11T22:32:04.624Z,5.60
2022-09-11T22:34:35.709Z,5.90
2022-09-11T22:37:03.131Z,6.65
2022-09-11T22:39:31.921Z,5.88
2022-09-11T22:41:59.643Z,6.10
2022-09-11T22:44:26.562Z,5.72
2022-09-11T22:46:53.335Z,5.75
2022-09-11T22:49:19.710Z,5.80
2022-09-11T22:51:46.220Z,6.30
2022-09-11T22:54:13.843Z,7.05
2022-09-11T22:56:40.429Z,6.72
2022-09-11T22:59:07.217Z,6.10
2022-09-11T23:01:33.697Z,5.57
2022-09-11T23:04:00.143Z,5.90
2022-09-11T23:06:45.296Z,6.30
2022-09-11T23:09:16.698Z,6.47
2022-09-11T23:11:45.086Z,6.05
2022-09-11T23:14:14.473Z,6.78
2022-09-11T23:16:41.822Z,6.78
2022-09-11T23:19:11.619Z,6.53
2022-09-11T23:21:38.156Z,5.60
2022-09-11T23:24:06.147Z,5.95
2022-09-11T23:26:33.130Z,6.53
2022-09-11T23:28:59.689Z,6.85
2022-09-11T23:31:31.089Z,6.88
2022-09-11T23:34:02.867Z,7.30
2022-09-11T23:36:30.352Z,6.80
2022-09-11T23:38:57.373Z,7.18
2022-09-11T23:41:24.340Z,7.10
2022-09-11T23:43:51.334Z,7.25
2022-09-11T23:46:17.908Z,6.97
2022-09-11T23:48:45.107Z,6.20
2022-09-11T23:51:11.625Z,7.35
2022-09-11T23:53:39.849Z,6.85
2022-09-11T23:56:07.396Z,6.60
2022-09-11T23:58:39.221Z,6.95
